createdAt,value
2023-04-18T00:02:23.137Z,2.20
2023-04-18T00:04:51.952Z,2.33
2023-04-18T00:07:20.972Z,2.10
2023-04-18T00:09:50.933Z,2.30
2023-04-18T00:12:20.946Z,1.67
2023-04-18T00:14:50.538Z,1.83
2023-04-18T00:17:20.438Z,1.70
2023-04-18T00:19:48.886Z,2.00
2023-04-18T00:22:22.405Z,1.83
2023-04-18T00:24:52.548Z,1.70
2023-04-18T00:27:21.202Z,1.70
2023-04-18T00:29:49.926Z,1.83
2023-04-18T00:32:19.747Z,2.07
2023-04-18T00:34:48.285Z,1.73
2023-04-18T00:37:16.865Z,1.63
2023-04-18T00:39:45.429Z,1.57
2023-04-18T00:42:15.257Z,2.37
2023-04-18T00:44:43.821Z,2.10
2023-04-18T00:47:12.329Z,2.60
2023-04-18T00:49:40.880Z,1.90
2023-04-18T00:52:09.514Z,1.77
2023-04-18T00:54:38.335Z,2.20
2023-04-18T00:57:08.010Z,2.50
2023-04-18T00:59:38.119Z,2.30
2023-04-18T01:02:06.750Z,2.37
2023-04-18T01:04:35.496Z,2.60
2023-04-18T01:07:04.599Z,2.53
2023-04-18T01:09:33.304Z,2.47
2023-04-18T01:12:01.888Z,2.60
2023-04-18T01:14:30.463Z,3.13
2023-04-18T01:17:01.544Z,3.13
2023-04-18T01:19:30.000Z,2.97
2023-04-18T01:21:58.510Z,3.37
2023-04-18T01:24:29.843Z,2.83
2023-04-18T01:26:58.722Z,2.93
2023-04-18T01:29:27.349Z,2.30
2023-04-18T01:31:55.909Z,2.83
2023-04-18T01:34:24.383Z,2.57
2023-04-18T01:36:53.053Z,2.30
2023-04-18T01:39:21.503Z,2.57
2023-04-18T01:41:51.578Z,2.20
2023-04-18T01:44:20.229Z,2.60
2023-04-18T01:46:48.759Z,2.27
2023-04-18T01:49:17.743Z,2.00
2023-04-18T01:51:46.670Z,2.20
2023-04-18T01:54:15.560Z,1.90
2023-04-18T01:56:44.250Z,1.87
2023-04-18T01:59:14.209Z,2.37
2023-04-18T02:01:43.349Z,1.87
2023-04-18T02:04:12.078Z,1.60
2023-04-18T02:06:40.790Z,1.77
2023-04-18T02:09:09.600Z,1.40
2023-04-18T02:11:38.061Z,1.93
2023-04-18T02:14:06.703Z,1.30
2023-04-18T02:16:36.779Z,1.60
2023-04-18T02:19:06.405Z,1.93
2023-04-18T02:21:34.973Z,1.57
2023-04-18T02:24:03.535Z,1.63
2023-04-18T02:26:31.982Z,1.80
2023-04-18T02:29:00.541Z,1.80
2023-04-18T02:31:29.195Z,1.57
2023-04-18T02:33:59.106Z,1.73
2023-04-18T02:36:28.368Z,1.70
2023-04-18T02:38:57.035Z,1.60
2023-04-18T02:41:25.489Z,1.80
2023-04-18T02:43:54.096Z,1.70
2023-04-18T02:46:22.771Z,1.50
2023-04-18T02:48:51.336Z,1.80
2023-04-18T02:51:21.300Z,2.00
2023-04-18T02:53:51.887Z,1.73
2023-04-18T02:56:20.333Z,1.90
2023-04-18T02:58:48.900Z,1.90
2023-04-18T03:01:17.563Z,1.70
2023-04-18T03:03:46.234Z,1.73
2023-04-18T03:06:14.829Z,1.60
2023-04-18T03:08:44.811Z,1.43
2023-04-18T03:11:13.282Z,1.70
2023-04-18T03:13:41.848Z,1.83
2023-04-18T03:16:11.535Z,1.60
2023-04-18T03:18:40.023Z,1.67
2023-04-18T03:21:08.669Z,1.50
2023-04-18T03:23:37.234Z,1.77
2023-04-18T03:26:08.319Z,1.80
2023-04-18T03:28:36.976Z,1.37
2023-04-18T03:31:05.471Z,1.67
2023-04-18T03:33:34.060Z,1.73
2023-04-18T03:36:02.701Z,1.60
2023-04-18T03:38:31.159Z,1.80
2023-04-18T03:41:00.385Z,1.60
2023-04-18T03:43:30.343Z,1.47
2023-04-18T03:45:58.892Z,1.40
2023-04-18T03:48:28.927Z,1.70
2023-04-18T03:50:57.596Z,1.60
2023-04-18T03:53:26.083Z,1.57
2023-04-18T03:55:54.652Z,1.40
2023-04-18T03:58:24.133Z,1.40
2023-04-18T04:00:54.160Z,1.70
2023-04-18T04:03:22.760Z,1.63
2023-04-18T04:05:51.654Z,1.57
2023-04-18T04:08:20.114Z,1.60
2023-04-18T04:10:48.628Z,1.47
2023-04-18T04:13:17.230Z,1.43
2023-04-18T04:15:45.807Z,1.77
2023-04-18T04:18:15.634Z,1.60
2023-04-18T04:20:44.227Z,1.40
2023-04-18T04:23:12.687Z,1.90
2023-04-18T04:25:41.159Z,1.50
2023-04-18T04:28:09.831Z,1.50
2023-04-18T04:30:38.306Z,1.50
2023-04-18T04:33:07.526Z,1.30
2023-04-18T04:35:37.761Z,1.60
2023-04-18T04:38:07.231Z,1.30
2023-04-18T04:40:37.817Z,1.20
2023-04-18T04:43:06.614Z,1.50
2023-04-18T04:45:36.393Z,1.30
2023-04-18T04:48:05.027Z,1.50
2023-04-18T04:50:35.550Z,1.40
2023-04-18T04:53:05.435Z,1.40
2023-04-18T04:55:33.942Z,1.20
2023-04-18T04:58:02.531Z,1.30
2023-04-18T05:00:31.105Z,1.50
2023-04-18T05:02:59.975Z,1.50
2023-04-18T05:05:28.731Z,1.43
2023-04-18T05:07:57.385Z,1.47
2023-04-18T05:10:27.223Z,1.50
2023-04-18T05:12:55.738Z,1.53
2023-04-18T05:15:25.232Z,1.40
2023-04-18T05:17:53.786Z,1.47
2023-04-18T05:20:22.488Z,1.67
2023-04-18T05:22:51.293Z,1.80
2023-04-18T05:25:19.876Z,1.50
2023-04-18T05:27:49.837Z,1.70
2023-04-18T05:30:18.506Z,1.57
2023-04-18T05:32:46.998Z,1.70
2023-04-18T05:35:15.745Z,1.63
2023-04-18T05:37:44.275Z,1.80
2023-04-18T05:40:13.592Z,1.70
2023-04-18T05:42:42.299Z,1.70
2023-04-18T05:45:12.639Z,1.70
2023-04-18T05:47:41.214Z,1.60
2023-04-18T05:50:10.531Z,1.70
2023-04-18T05:52:39.279Z,1.57
2023-04-18T05:55:08.185Z,1.60
2023-04-18T05:57:36.700Z,1.60
2023-04-18T06:00:07.825Z,1.50
2023-04-18T06:02:38.071Z,1.27
2023-04-18T06:05:07.785Z,1.40
2023-04-18T06:07:36.759Z,1.40
2023-04-18T06:10:07.821Z,1.20
2023-04-18T06:12:36.346Z,1.37
2023-04-18T06:15:05.569Z,1.20
2023-04-18T06:17:34.500Z,1.20
2023-04-18T06:20:06.264Z,1.07
2023-04-18T06:22:35.117Z,1.20
2023-04-18T06:25:03.727Z,1.20
2023-04-18T06:27:32.275Z,1.33
2023-04-18T06:30:01.070Z,1.20
2023-04-18T06:32:29.670Z,1.47
2023-04-18T06:34:58.129Z,1.47
2023-04-18T06:37:28.147Z,1.33
2023-04-18T06:39:56.724Z,1.30
2023-04-18T06:42:25.318Z,1.10
2023-04-18T06:44:53.899Z,1.30
2023-04-18T06:47:22.634Z,1.17
2023-04-18T06:49:51.294Z,1.00
2023-04-18T06:52:19.773Z,1.30
2023-04-18T06:54:49.782Z,1.10
2023-04-18T06:57:18.354Z,1.03
2023-04-18T06:59:46.798Z,1.20
2023-04-18T07:02:15.632Z,0.90
2023-04-18T07:04:44.368Z,1.20
2023-04-18T07:07:12.989Z,1.10
2023-04-18T07:09:41.563Z,1.30
2023-04-18T07:12:11.486Z,1.30
2023-04-18T07:14:39.971Z,1.00
2023-04-18T07:17:08.644Z,1.10
2023-04-18T07:19:37.273Z,0.90
2023-04-18T07:22:05.808Z,1.13
2023-04-18T07:24:34.456Z,1.20
2023-04-18T07:27:03.939Z,1.00
2023-04-18T07:29:33.881Z,1.13
2023-04-18T07:32:02.543Z,1.10
2023-04-18T07:34:31.577Z,1.30
2023-04-18T07:37:00.061Z,1.40
2023-04-18T07:39:28.734Z,1.40
2023-04-18T07:41:59.868Z,1.30
2023-04-18T07:44:28.323Z,1.40
2023-04-18T07:46:58.970Z,1.30
2023-04-18T07:49:27.840Z,1.10
2023-04-18T07:51:56.313Z,1.13
2023-04-18T07:54:24.899Z,1.27
2023-04-18T07:56:53.533Z,1.17
2023-04-18T07:59:21.998Z,1.10
2023-04-18T08:01:50.569Z,1.13
2023-04-18T08:04:20.703Z,1.17
2023-04-18T08:06:49.251Z,1.13
2023-04-18T08:09:19.331Z,1.20
2023-04-18T08:11:48.059Z,1.17
2023-04-18T08:14:16.530Z,1.13
2023-04-18T08:16:45.176Z,1.00
2023-04-18T08:19:14.000Z,0.70
2023-04-18T08:21:44.096Z,1.00
2023-04-18T08:24:12.750Z,1.00
2023-04-18T08:26:41.335Z,1.37
2023-04-18T08:29:09.795Z,0.87
2023-04-18T08:31:38.426Z,0.80
2023-04-18T08:34:08.218Z,1.13
2023-04-18T08:36:36.942Z,0.80
2023-04-18T08:39:08.042Z,0.90
2023-04-18T08:41:38.737Z,1.10
2023-04-18T08:44:08.584Z,0.70
2023-04-18T08:46:37.271Z,1.00
2023-04-18T08:49:06.279Z,0.90
2023-04-18T08:51:35.278Z,0.80
2023-04-18T08:54:06.231Z,0.80
2023-04-18T08:56:37.693Z,0.80
2023-04-18T08:59:06.303Z,0.50
2023-04-18T09:01:52.812Z,0.50
2023-04-18T09:04:38.812Z,0.60
2023-04-18T09:07:08.282Z,0.60
2023-04-18T09:09:43.384Z,0.50
2023-04-18T09:12:14.817Z,0.47
2023-04-18T09:14:45.599Z,0.60
2023-04-18T09:17:16.438Z,0.47
2023-04-18T09:19:50.210Z,0.60
2023-04-18T09:22:19.415Z,0.57
2023-04-18T09:24:53.572Z,0.57
2023-04-18T09:27:23.845Z,0.40
2023-04-18T09:29:55.847Z,0.40
2023-04-18T09:32:27.248Z,0.50
2023-04-18T09:34:58.176Z,0.40
2023-04-18T09:37:27.636Z,0.30
2023-04-18T09:39:56.541Z,0.40
2023-04-18T09:42:28.816Z,0.25
2023-04-18T09:45:01.620Z,0.40
2023-04-18T09:47:30.804Z,0.40
2023-04-18T09:49:59.294Z,0.33
2023-04-18T09:52:28.022Z,0.53
2023-04-18T09:55:01.452Z,0.40
2023-04-18T09:57:31.878Z,0.50
2023-04-18T10:00:13.999Z,0.60
2023-04-18T10:02:48.472Z,0.40
2023-04-18T10:05:19.517Z,0.40
2023-04-18T10:07:50.749Z,0.40
2023-04-18T10:10:19.936Z,0.50
2023-04-18T10:12:51.890Z,0.30
2023-04-18T10:15:21.975Z,0.50
2023-04-18T10:18:03.548Z,0.37
2023-04-18T10:20:35.118Z,0.30
2023-04-18T10:23:28.547Z,0.50
2023-04-18T10:25:57.133Z,0.50
2023-04-18T10:28:28.161Z,0.37
2023-04-18T10:30:58.004Z,0.30
2023-04-18T10:33:31.836Z,0.40
2023-04-18T10:36:01.713Z,0.50
2023-04-18T10:38:30.404Z,0.60
2023-04-18T10:41:14.942Z,0.50
2023-04-18T10:44:02.163Z,0.40
2023-04-18T10:46:32.933Z,0.50
2023-04-18T10:49:17.363Z,0.60
2023-04-18T10:51:46.115Z,0.47
2023-04-18T10:54:16.010Z,0.43
2023-04-18T10:56:53.371Z,0.40
2023-04-18T10:59:23.981Z,0.40
2023-04-18T11:01:57.331Z,0.50
2023-04-18T11:04:26.591Z,0.40
2023-04-18T11:06:57.562Z,0.40
2023-04-18T11:09:26.652Z,0.50
2023-04-18T11:12:05.375Z,0.40
2023-04-18T11:14:42.967Z,0.33
2023-04-18T11:17:19.804Z,0.50
2023-04-18T11:19:48.437Z,0.50
2023-04-18T11:22:16.917Z,0.50
2023-04-18T11:24:45.825Z,0.50
2023-04-18T11:27:14.561Z,0.40
2023-04-18T11:29:43.040Z,0.47
2023-04-18T11:32:11.783Z,0.67
2023-04-18T11:34:41.792Z,0.70
2023-04-18T11:37:10.269Z,0.50
2023-04-18T11:39:43.041Z,0.50
2023-04-18T11:42:11.795Z,0.43
2023-04-18T11:44:43.921Z,0.50
2023-04-18T11:47:24.133Z,0.60
2023-04-18T11:49:59.014Z,0.53
2023-04-18T11:52:28.754Z,0.40
2023-04-18T11:54:57.609Z,0.40
2023-04-18T11:57:26.927Z,0.40
2023-04-18T11:59:56.338Z,0.50
2023-04-18T12:02:25.815Z,0.50
2023-04-18T12:04:56.029Z,0.37
2023-04-18T12:07:37.133Z,0.77
2023-04-18T12:10:06.215Z,0.40
2023-04-18T12:12:34.811Z,0.50
2023-04-18T12:15:04.628Z,0.60
2023-04-18T12:17:33.476Z,0.60
2023-04-18T12:20:06.730Z,0.60
2023-04-18T12:22:43.488Z,0.60
2023-04-18T12:25:20.262Z,0.53
2023-04-18T12:27:49.231Z,0.60
2023-04-18T12:30:20.066Z,0.50
2023-04-18T12:32:48.903Z,0.40
2023-04-18T12:35:17.871Z,0.50
2023-04-18T12:37:48.170Z,0.50
2023-04-18T12:40:18.944Z,0.30
2023-04-18T12:42:48.199Z,0.40
2023-04-18T12:45:17.259Z,0.30
2023-04-18T12:47:46.588Z,0.40
2023-04-18T12:50:17.478Z,0.40
2023-04-18T12:52:46.123Z,0.30
2023-04-18T12:55:16.358Z,0.50
2023-04-18T12:57:45.249Z,0.50
2023-04-18T13:00:14.887Z,0.30
2023-04-18T13:02:44.350Z,0.60
2023-04-18T13:05:14.385Z,0.40
2023-04-18T13:07:43.399Z,0.43
2023-04-18T13:10:12.691Z,0.40
2023-04-18T13:12:43.420Z,0.43
2023-04-18T13:15:12.516Z,0.32
2023-04-18T13:17:41.378Z,0.40
2023-04-18T13:20:12.574Z,0.40
2023-04-18T13:22:41.718Z,0.55
2023-04-18T13:25:11.461Z,0.50
2023-04-18T13:27:41.818Z,0.60
2023-04-18T13:30:12.605Z,0.40
2023-04-18T13:32:43.196Z,0.50
2023-04-18T13:35:12.108Z,0.60
2023-04-18T13:37:40.931Z,0.45
2023-04-18T13:40:10.117Z,0.35
2023-04-18T13:42:39.286Z,0.55
2023-04-18T13:45:08.295Z,0.45
2023-04-18T13:47:38.446Z,0.50
2023-04-18T13:50:07.331Z,0.70
2023-04-18T13:52:36.361Z,0.70
2023-04-18T13:55:05.080Z,0.40
2023-04-18T13:57:33.693Z,0.50
2023-04-18T14:00:03.626Z,0.43
2023-04-18T14:02:32.295Z,0.40
2023-04-18T14:05:02.694Z,0.40
2023-04-18T14:07:31.336Z,0.50
2023-04-18T14:09:59.943Z,0.53
2023-04-18T14:12:28.470Z,0.30
2023-04-18T14:14:56.916Z,0.40
2023-04-18T14:17:25.515Z,0.40
2023-04-18T14:19:54.058Z,0.30
2023-04-18T14:22:23.915Z,0.37
2023-04-18T14:24:54.523Z,0.40
2023-04-18T14:27:23.556Z,0.43
2023-04-18T14:29:52.256Z,0.50
2023-04-18T14:32:22.543Z,0.40
2023-04-18T14:34:51.153Z,0.30
2023-04-18T14:37:19.608Z,0.47
2023-04-18T14:39:49.982Z,0.40
2023-04-18T14:42:18.816Z,0.40
2023-04-18T14:44:47.280Z,0.37
2023-04-18T14:47:15.980Z,0.50
2023-04-18T14:49:44.640Z,0.50
2023-04-18T14:52:13.121Z,0.73
2023-04-18T14:54:41.715Z,0.50
2023-04-18T14:57:15.395Z,0.53
2023-04-18T14:59:43.937Z,0.60
2023-04-18T15:02:12.524Z,0.60
2023-04-18T15:04:41.176Z,0.50
2023-04-18T15:07:09.787Z,0.50
2023-04-18T15:09:38.353Z,0.50
2023-04-18T15:12:07.304Z,0.50
2023-04-18T15:14:37.207Z,0.30
2023-04-18T15:17:07.129Z,0.68
2023-04-18T15:19:35.737Z,0.38
2023-04-18T15:22:04.349Z,0.47
2023-04-18T15:24:32.894Z,0.40
2023-04-18T15:27:01.966Z,0.38
2023-04-18T15:29:30.610Z,0.40
2023-04-18T15:32:01.547Z,0.47
2023-04-18T15:34:30.068Z,0.40
2023-04-18T15:36:58.658Z,0.50
2023-04-18T15:39:27.293Z,0.40
2023-04-18T15:41:56.634Z,0.43
2023-04-18T15:44:26.732Z,0.50
2023-04-18T15:46:55.557Z,0.30
2023-04-18T15:49:25.808Z,0.30
2023-04-18T15:51:54.459Z,0.47
2023-04-18T15:54:23.064Z,0.40
2023-04-18T15:56:51.693Z,0.43
2023-04-18T15:59:20.567Z,0.30
2023-04-18T16:01:49.251Z,0.20
2023-04-18T16:04:18.063Z,0.30
2023-04-18T16:06:48.207Z,0.43
2023-04-18T16:09:16.761Z,0.40
2023-04-18T16:11:45.252Z,0.33
2023-04-18T16:14:13.971Z,0.30
2023-04-18T16:16:42.804Z,0.33
2023-04-18T16:19:11.461Z,0.40
2023-04-18T16:21:40.011Z,0.37
2023-04-18T16:24:10.092Z,0.30
2023-04-18T16:26:38.578Z,0.37
2023-04-18T16:29:07.076Z,0.30
2023-04-18T16:31:35.843Z,0.50
2023-04-18T16:34:04.375Z,0.20
2023-04-18T16:36:35.562Z,0.40
2023-04-18T16:39:04.746Z,0.40
2023-04-18T16:41:34.617Z,0.30
2023-04-18T16:44:03.200Z,0.30
2023-04-18T16:46:32.439Z,0.33
2023-04-18T16:49:01.580Z,0.50
2023-04-18T16:51:30.681Z,0.30
2023-04-18T16:53:59.221Z,0.60
2023-04-18T16:56:27.695Z,0.40
2023-04-18T16:58:57.790Z,0.33
2023-04-18T17:01:26.452Z,0.30
2023-04-18T17:03:55.067Z,0.20
2023-04-18T17:06:25.000Z,0.80
2023-04-18T17:08:53.761Z,0.40
2023-04-18T17:11:22.562Z,0.43
2023-04-18T17:13:51.469Z,0.40
2023-04-18T17:16:21.934Z,0.30
2023-04-18T17:18:50.468Z,0.40
2023-04-18T17:21:19.044Z,0.30
2023-04-18T17:23:47.684Z,0.30
2023-04-18T17:26:16.143Z,0.43
2023-04-18T17:28:44.750Z,0.33
2023-04-18T17:31:15.432Z,0.30
2023-04-18T17:33:45.436Z,0.40
2023-04-18T17:36:14.050Z,0.40
2023-04-18T17:38:48.945Z,0.40
2023-04-18T17:41:18.760Z,0.40
2023-04-18T17:43:47.843Z,0.43
2023-04-18T17:46:16.613Z,0.30
2023-04-18T17:48:47.092Z,0.60
2023-04-18T17:51:16.380Z,0.40
2023-04-18T17:53:45.138Z,0.30
2023-04-18T17:56:13.776Z,0.40
2023-04-18T17:58:42.309Z,0.57
2023-04-18T18:01:16.328Z,0.30
2023-04-18T18:03:47.345Z,0.40
2023-04-18T18:06:16.196Z,0.30
2023-04-18T18:08:45.258Z,0.40
2023-04-18T18:11:13.908Z,0.30
2023-04-18T18:13:42.422Z,0.30
2023-04-18T18:16:11.044Z,0.40
2023-04-18T18:18:39.669Z,0.43
2023-04-18T18:21:10.652Z,0.30
2023-04-18T18:23:39.293Z,0.50
2023-04-18T18:26:09.670Z,0.70
2023-04-18T18:28:38.187Z,0.40
2023-04-18T18:31:06.790Z,0.30
2023-04-18T18:33:35.327Z,0.40
2023-04-18T18:36:03.777Z,0.50
2023-04-18T18:38:33.700Z,0.23
2023-04-18T18:41:03.737Z,0.50
2023-04-18T18:43:32.397Z,0.33
2023-04-18T18:46:00.989Z,0.40
2023-04-18T18:48:29.623Z,0.40
2023-04-18T18:50:58.321Z,0.30
2023-04-18T18:53:26.846Z,0.30
2023-04-18T18:55:56.845Z,0.50
2023-04-18T18:58:25.338Z,0.30
2023-04-18T19:00:54.683Z,0.33
2023-04-18T19:03:23.461Z,0.50
2023-04-18T19:05:52.012Z,0.30
2023-04-18T19:08:20.548Z,0.47
2023-04-18T19:10:49.169Z,0.30
2023-04-18T19:13:19.023Z,0.30
2023-04-18T19:15:47.605Z,0.20
2023-04-18T19:18:18.112Z,0.40
2023-04-18T19:20:48.007Z,0.20
2023-04-18T19:23:17.128Z,0.30
2023-04-18T19:25:45.614Z,0.30
2023-04-18T19:28:14.411Z,0.23
2023-04-18T19:30:44.433Z,0.30
2023-04-18T19:33:12.892Z,0.27
2023-04-18T19:35:43.052Z,0.30
2023-04-18T19:38:11.635Z,0.23
2023-04-18T19:40:40.398Z,0.20
2023-04-18T19:43:08.855Z,0.20
2023-04-18T19:45:37.566Z,0.30
2023-04-18T19:48:07.765Z,0.30
2023-04-18T19:50:36.297Z,0.27
2023-04-18T19:53:05.052Z,0.40
2023-04-18T19:55:33.519Z,0.27
2023-04-18T19:58:01.994Z,0.20
2023-04-18T20:00:30.694Z,0.23
2023-04-18T20:02:59.656Z,0.20
2023-04-18T20:05:29.722Z,0.27
2023-04-18T20:07:58.528Z,0.40
2023-04-18T20:10:27.084Z,0.33
2023-04-18T20:12:55.585Z,0.23
2023-04-18T20:15:24.905Z,0.27
2023-04-18T20:17:53.420Z,0.30
2023-04-18T20:20:22.053Z,0.20
2023-04-18T20:22:52.048Z,0.40
2023-04-18T20:25:20.489Z,0.37
2023-04-18T20:27:48.986Z,0.20
2023-04-18T20:30:17.783Z,0.20
2023-04-18T20:32:46.271Z,0.37
2023-04-18T20:35:14.741Z,0.40
2023-04-18T20:37:43.298Z,0.40
2023-04-18T20:40:13.423Z,0.60
2023-04-18T20:42:41.884Z,0.50
2023-04-18T20:45:11.809Z,0.30
2023-04-18T20:47:41.269Z,0.23
2023-04-18T20:50:10.346Z,0.30
2023-04-18T20:52:42.986Z,0.23
2023-04-18T20:55:12.984Z,0.30
2023-04-18T20:57:41.533Z,0.20
2023-04-18T21:00:10.933Z,0.20
2023-04-18T21:02:39.595Z,0.20
2023-04-18T21:05:08.376Z,0.30
2023-04-18T21:07:37.047Z,0.40
2023-04-18T21:10:05.909Z,0.40
2023-04-18T21:12:35.889Z,0.37
2023-04-18T21:15:05.690Z,0.23
2023-04-18T21:17:34.173Z,0.23
2023-04-18T21:20:03.412Z,0.40
2023-04-18T21:22:32.014Z,0.27
2023-04-18T21:25:00.467Z,0.23
2023-04-18T21:27:29.134Z,0.70
2023-04-18T21:29:59.100Z,0.57
2023-04-18T21:32:27.605Z,0.20
2023-04-18T21:34:57.897Z,0.20
2023-04-18T21:37:26.663Z,0.30
2023-04-18T21:39:55.109Z,0.40
2023-04-18T21:42:23.619Z,0.40
2023-04-18T21:44:52.192Z,0.43
2023-04-18T21:47:22.099Z,0.20
2023-04-18T21:49:51.120Z,0.40
2023-04-18T21:52:19.805Z,0.30
2023-04-18T21:54:48.278Z,0.40
2023-04-18T21:57:16.832Z,0.40
2023-04-18T21:59:45.478Z,0.40
2023-04-18T22:02:14.032Z,0.40
2023-04-18T22:04:44.256Z,0.27
2023-04-18T22:07:15.582Z,0.50
2023-04-18T22:09:44.793Z,1.10
2023-04-18T22:12:14.133Z,0.80
2023-04-18T22:14:42.816Z,0.50
2023-04-18T22:17:11.260Z,0.77
2023-04-18T22:19:39.752Z,0.60
2023-04-18T22:22:09.730Z,0.50
2023-04-18T22:24:38.165Z,0.70
2023-04-18T22:27:06.632Z,0.30
2023-04-18T22:29:35.320Z,0.40
2023-04-18T22:32:03.809Z,0.40
2023-04-18T22:34:32.256Z,0.40
2023-04-18T22:37:01.046Z,0.40
2023-04-18T22:39:31.917Z,0.50
2023-04-18T22:42:00.400Z,0.20
2023-04-18T22:44:29.103Z,0.33
2023-04-18T22:46:57.670Z,0.50
2023-04-18T22:49:26.207Z,0.50
2023-04-18T22:51:55.148Z,0.50
2023-04-18T22:54:23.736Z,1.10
2023-04-18T22:56:53.621Z,0.80
2023-04-18T22:59:22.326Z,0.93
2023-04-18T23:01:50.930Z,0.83
2023-04-18T23:04:19.745Z,0.60
2023-04-18T23:06:48.676Z,0.57
2023-04-18T23:09:19.660Z,0.60
2023-04-18T23:11:48.155Z,0.50
2023-04-18T23:14:18.203Z,0.50
2023-04-18T23:16:46.780Z,0.67
2023-04-18T23:19:15.262Z,0.80
2023-04-18T23:21:43.868Z,0.40
2023-04-18T23:24:12.750Z,0.90
2023-04-18T23:26:41.322Z,0.40
2023-04-18T23:29:09.966Z,0.40
2023-04-18T23:31:40.004Z,0.40
2023-04-18T23:34:08.540Z,0.50
2023-04-18T23:36:37.353Z,0.30
2023-04-18T23:39:05.923Z,0.40
2023-04-18T23:41:34.371Z,0.30
2023-04-18T23:44:02.964Z,0.33
2023-04-18T23:46:32.974Z,0.50
2023-04-18T23:49:04.349Z,0.43
2023-04-18T23:51:32.897Z,0.50
2023-04-18T23:54:01.373Z,0.30
2023-04-18T23:56:30.978Z,0.40
2023-04-18T23:58:59.452Z,0.37
